Time;durP1;ratioP1;P1;durP2;ratioP2;P2;SDS_P1;SDS_P2;PMS_P1;PMS_P2;Temp;Humidity;BMP_temperature;BMP_pressure;BME280_temperature;BME280_humidity;BME280_pressure;Samples;Min_cycle;Max_cycle;Signal;HPM_P1;HPM_P2
2023/07/12 00:00:47;;;;;;;;;;;;;;;16.15;78.30;101119.84;108639;1259;72175;-88
2023/07/12 00:03:32;;;;;;;;;;;;;;;16.12;78.48;101126.55;108546;1261;60294;-89
2023/07/12 00:06:11;;;;;;;;;;;;;;;16.11;78.40;101132.38;108656;1260;124736;-90
2023/07/12 00:08:40;;;;;;;;;;;;;;;16.09;78.50;101134.48;108594;1259;73399;-89
2023/07/12 00:11:12;;;;;;;;;;;;;;;16.08;78.53;101128.63;108389;1259;124941;-89
2023/07/12 00:13:39;;;;;;;;;;;;;;;16.07;78.45;101124.73;108588;1259;71442;-89
2023/07/12 00:16:20;;;;;;;;;;;;;;;16.05;78.51;101122.59;108529;1259;124971;-89
2023/07/12 00:18:47;;;;;;;;;;;;;;;16.03;78.57;101117.98;108554;1259;59634;-88
2023/07/12 00:21:16;;;;;;;;;;;;;;;16.02;78.66;101115.84;108590;1259;73411;-89
2023/07/12 00:23:43;;;;;;;;;;;;;;;16.01;78.79;101116.52;108419;1258;125227;-89
2023/07/12 00:26:17;;;;;;;;;;;;;;;15.99;78.72;101111.75;108572;1259;73123;-89
2023/07/12 00:28:47;;;;;;;;;;;;;;;15.97;78.79;101109.24;108381;1260;125453;-88
2023/07/12 00:31:14;;;;;;;;;;;;;;;15.94;78.82;101109.23;108539;1264;59511;-89
2023/07/12 00:33:41;;;;;;;;;;;;;;;15.90;78.85;101117.34;108707;1260;75109;-89
2023/07/12 00:36:12;;;;;;;;;;;;;;;15.89;78.85;101127.23;108588;1259;124903;-88
2023/07/12 00:38:40;;;;;;;;;;;;;;;15.88;78.87;101130.93;108612;1259;72222;-89
2023/07/12 00:41:16;;;;;;;;;;;;;;;15.87;78.98;101127.75;108637;1259;125703;-89
2023/07/12 00:43:54;;;;;;;;;;;;;;;15.86;79.06;101127.39;108724;1259;61145;-89
2023/07/12 00:46:24;;;;;;;;;;;;;;;15.84;79.12;101115.16;108569;1259;126759;-89
2023/07/12 00:48:51;;;;;;;;;;;;;;;15.84;78.98;101103.83;108570;1259;66598;-89
2023/07/12 00:51:24;;;;;;;;;;;;;;;15.81;79.02;101101.51;108672;1259;72843;-89
2023/07/12 00:53:51;;;;;;;;;;;;;;;15.79;79.01;101085.90;108628;1259;125875;-89
2023/07/12 00:56:18;;;;;;;;;;;;;;;15.78;79.16;101077.40;108645;1264;60252;-88
2023/07/12 00:58:46;;;;;;;;;;;;;;;15.77;79.16;101067.85;108513;1259;125473;-89
2023/07/12 01:01:13;;;;;;;;;;;;;;;15.77;79.38;101062.71;108667;1259;67071;-88
2023/07/12 01:03:41;;;;;;;;;;;;;;;15.78;79.37;101051.91;108563;1259;70925;-88
2023/07/12 01:06:09;;;;;;;;;;;;;;;15.79;79.55;101042.38;108528;1259;126250;-88
2023/07/12 01:08:36;;;;;;;;;;;;;;;15.79;79.60;101033.89;108736;1264;59251;-88
2023/07/12 01:11:03;;;;;;;;;;;;;;;15.80;79.65;101026.45;108537;1259;125453;-88
2023/07/12 01:13:31;;;;;;;;;;;;;;;15.79;79.53;101018.48;108643;1265;67498;-88
2023/07/12 01:15:58;;;;;;;;;;;;;;;15.77;79.49;101011.39;108660;1259;71436;-88
2023/07/12 01:18:27;;;;;;;;;;;;;;;15.77;79.63;101011.57;108421;1259;125396;-88
2023/07/12 01:21:06;;;;;;;;;;;;;;;15.76;79.69;101013.69;108727;1259;59438;-88
2023/07/12 01:23:34;;;;;;;;;;;;;;;15.75;79.69;101003.23;108575;1259;126082;-88
2023/07/12 01:26:14;;;;;;;;;;;;;;;15.74;79.75;101003.57;108698;1259;67641;-88
2023/07/12 01:28:42;;;;;;;;;;;;;;;15.72;79.76;100997.36;108372;1259;125511;-88
2023/07/12 01:31:09;;;;;;;;;;;;;;;15.71;79.72;100992.38;108478;1259;59456;-88
2023/07/12 01:33:36;;;;;;;;;;;;;;;15.71;79.72;100991.48;108580;1259;62324;-88
2023/07/12 01:36:03;;;;;;;;;;;;;;;15.68;79.77;100986.52;108486;1259;125865;-88
2023/07/12 01:38:30;;;;;;;;;;;;;;;15.66;79.71;100990.93;108650;1259;65876;-88
2023/07/12 01:40:57;;;;;;;;;;;;;;;15.65;79.64;100995.17;108511;1259;126322;-88
2023/07/12 01:43:24;;;;;;;;;;;;;;;15.61;79.64;100993.02;108487;1263;59655;-88
2023/07/12 01:45:51;;;;;;;;;;;;;;;15.60;79.67;100991.74;108441;1259;60291;-89
2023/07/12 01:48:18;;;;;;;;;;;;;;;15.57;79.65;100993.51;108464;1259;125365;-88
2023/07/12 01:50:48;;;;;;;;;;;;;;;15.55;79.70;100994.20;108494;1259;65895;-88
2023/07/12 01:53:15;;;;;;;;;;;;;;;15.52;79.86;100999.14;108594;1259;125051;-88
2023/07/12 01:55:42;;;;;;;;;;;;;;;15.51;79.74;100997.88;108605;1259;59502;-87
2023/07/12 01:58:09;;;;;;;;;;;;;;;15.50;79.81;101004.24;108493;1259;125470;-88
2023/07/12 02:00:36;;;;;;;;;;;;;;;15.49;79.77;100998.58;108556;1259;76190;-88
2023/07/12 02:03:03;;;;;;;;;;;;;;;15.49;79.76;100987.06;108552;1259;67620;-88
2023/07/12 02:05:31;;;;;;;;;;;;;;;15.48;79.75;100990.60;108427;1262;125547;-88
2023/07/12 02:07:59;;;;;;;;;;;;;;;15.47;79.75;101005.28;108537;1259;59533;-88
2023/07/12 02:10:26;;;;;;;;;;;;;;;15.47;79.86;101013.60;108468;1259;125928;-88
2023/07/12 02:12:53;;;;;;;;;;;;;;;15.47;79.85;101014.64;108521;1260;74748;-88
2023/07/12 02:15:20;;;;;;;;;;;;;;;15.47;79.96;101010.59;108523;1267;66851;-87
2023/07/12 02:17:50;;;;;;;;;;;;;;;15.48;79.99;101012.88;108417;1261;126517;-88
2023/07/12 02:20:20;;;;;;;;;;;;;;;15.49;79.99;101013.08;108620;1259;59447;-87
2023/07/12 02:22:47;;;;;;;;;;;;;;;15.50;80.08;101014.33;108463;1259;125494;-88
2023/07/12 02:25:14;;;;;;;;;;;;;;;15.52;79.98;101018.77;108563;1266;72390;-87
2023/07/12 02:27:45;;;;;;;;;;;;;;;15.53;79.97;101018.77;108573;1259;68310;-88
2023/07/12 02:30:13;;;;;;;;;;;;;;;15.55;80.08;101020.90;108488;1266;124934;-88
2023/07/12 02:32:40;;;;;;;;;;;;;;;15.58;80.13;101017.92;108600;1265;59484;-87
2023/07/12 02:35:07;;;;;;;;;;;;;;;15.62;80.18;101012.48;108427;1261;126299;-87
2023/07/12 02:37:34;;;;;;;;;;;;;;;15.65;80.12;101009.31;108391;1260;75503;-87
2023/07/12 02:40:01;;;;;;;;;;;;;;;15.68;80.13;101006.88;108595;1260;67365;-87
2023/07/12 02:42:30;;;;;;;;;;;;;;;15.71;80.17;100996.45;108602;1260;124881;-87
2023/07/12 02:44:57;;;;;;;;;;;;;;;15.77;80.29;100983.80;108479;1265;60099;-87
2023/07/12 02:47:24;;;;;;;;;;;;;;;15.84;80.19;100975.88;108364;1259;126156;-88
2023/07/12 02:49:51;;;;;;;;;;;;;;;15.92;80.29;100966.73;108498;1262;75496;-87
2023/07/12 02:52:18;;;;;;;;;;;;;;;16.01;80.32;100957.41;108483;1261;126447;-87
2023/07/12 02:54:45;;;;;;;;;;;;;;;16.09;80.29;100954.80;108541;1259;72894;-87
2023/07/12 02:57:13;;;;;;;;;;;;;;;16.19;80.24;100952.38;108535;1264;60035;-87
2023/07/12 02:59:40;;;;;;;;;;;;;;;16.29;80.08;100943.39;108448;1260;125824;-87
2023/07/12 03:02:07;;;;;;;;;;;;;;;16.38;79.90;100936.16;108706;1259;73589;-87
2023/07/12 03:04:34;;;;;;;;;;;;;;;16.47;79.92;100928.59;108601;1259;125406;-87
2023/07/12 03:07:01;;;;;;;;;;;;;;;16.60;79.87;100932.17;108539;1259;70820;-87
2023/07/12 03:09:28;;;;;;;;;;;;;;;16.71;79.78;100920.34;108487;1261;59421;-87
2023/07/12 03:11:55;;;;;;;;;;;;;;;16.83;79.67;100914.36;108369;1265;125572;-88
2023/07/12 03:14:22;;;;;;;;;;;;;;;16.98;79.62;100912.80;108540;1259;75966;-88
2023/07/12 03:16:49;;;;;;;;;;;;;;;17.13;79.56;100911.92;108445;1265;125178;-88
2023/07/12 03:19:16;;;;;;;;;;;;;;;17.30;79.40;100910.34;108515;1259;72283;-87
2023/07/12 03:21:43;;;;;;;;;;;;;;;17.44;79.27;100908.20;108593;1259;60017;-88
2023/07/12 03:24:10;;;;;;;;;;;;;;;17.59;79.14;100909.77;108440;1259;127385;-88
2023/07/12 03:26:37;;;;;;;;;;;;;;;17.77;79.08;100910.28;108443;1262;74442;-87
2023/07/12 03:29:04;;;;;;;;;;;;;;;17.94;78.92;100909.21;108513;1260;125203;-87
2023/07/12 03:31:31;;;;;;;;;;;;;;;18.24;79.22;100905.92;108572;1259;73479;-88
2023/07/12 03:33:58;;;;;;;;;;;;;;;19.05;80.45;100898.52;108574;1261;59286;-87
2023/07/12 03:36:29;;;;;;;;;;;;;;;20.15;80.22;100886.79;108459;1260;125041;-88
2023/07/12 03:38:57;;;;;;;;;;;;;;;21.03;78.18;100881.13;108679;1259;74356;-88
2023/07/12 03:41:24;;;;;;;;;;;;;;;21.32;75.91;100880.11;108431;1259;125627;-88
2023/07/12 03:43:54;;;;;;;;;;;;;;;21.29;74.47;100870.54;108515;1259;73070;-87
2023/07/12 03:46:21;;;;;;;;;;;;;;;21.19;73.70;100868.39;108393;1259;124445;-88
2023/07/12 03:48:48;;;;;;;;;;;;;;;21.27;73.67;100867.89;108554;1259;60515;-88
2023/07/12 03:51:16;;;;;;;;;;;;;;;21.40;72.89;100867.31;108549;1260;74673;-88
2023/07/12 03:53:44;;;;;;;;;;;;;;;21.49;72.59;100865.73;108492;1262;125867;-88
2023/07/12 03:56:10;;;;;;;;;;;;;;;22.03;73.31;100868.45;108439;1261;73663;-88
2023/07/12 03:58:38;;;;;;;;;;;;;;;23.07;73.40;100877.05;108522;1259;124659;-88
2023/07/12 04:01:05;;;;;;;;;;;;;;;24.33;72.69;100885.32;108513;1260;59269;-88
2023/07/12 04:03:36;;;;;;;;;;;;;;;25.69;70.84;100892.63;108470;1259;73953;-88
2023/07/12 04:06:03;;;;;;;;;;;;;;;27.10;69.18;100889.73;108436;1264;124749;-87
2023/07/12 04:08:30;;;;;;;;;;;;;;;28.37;67.13;100882.74;108649;1261;62785;-86
2023/07/12 04:10:57;;;;;;;;;;;;;;;29.67;64.77;100875.64;108456;1262;124414;-87
2023/07/12 04:13:24;;;;;;;;;;;;;;;30.64;62.44;100867.81;108586;1261;59560;-87
2023/07/12 04:15:52;;;;;;;;;;;;;;;31.61;60.52;100860.50;108567;1262;66473;-88
2023/07/12 04:18:19;;;;;;;;;;;;;;;32.54;58.56;100854.15;108579;1263;124597;-88
2023/07/12 04:20:46;;;;;;;;;;;;;;;33.47;56.64;100846.45;108705;1259;63855;-88
2023/07/12 04:23:13;;;;;;;;;;;;;;;34.33;54.77;100840.52;108484;1259;124321;-88
2023/07/12 04:25:40;;;;;;;;;;;;;;;35.14;53.18;100836.66;108598;1260;59451;-88
2023/07/12 04:28:07;;;;;;;;;;;;;;;35.90;51.14;100843.17;108430;1267;124706;-86
2023/07/12 04:30:34;;;;;;;;;;;;;;;36.49;49.24;100852.65;108714;1260;59127;-85
2023/07/12 04:33:01;;;;;;;;;;;;;;;37.13;48.13;100855.38;108699;1265;64271;-85
2023/07/12 04:35:28;;;;;;;;;;;;;;;37.86;46.64;100860.26;108445;1260;124748;-86
2023/07/12 04:37:55;;;;;;;;;;;;;;;38.44;45.21;100862.06;108493;1259;59141;-85
2023/07/12 04:40:21;;;;;;;;;;;;;;;38.77;43.64;100856.45;108448;1266;125018;-84
2023/07/12 04:42:48;;;;;;;;;;;;;;;39.13;42.70;100848.55;108475;1266;59907;-84
2023/07/12 04:45:16;;;;;;;;;;;;;;;39.67;41.61;100833.66;108531;1259;73630;-84
2023/07/12 04:47:43;;;;;;;;;;;;;;;40.28;40.71;100817.84;108341;1260;124229;-84
2023/07/12 04:50:11;;;;;;;;;;;;;;;40.83;39.43;100808.04;108555;1260;59136;-84
2023/07/12 04:52:38;;;;;;;;;;;;;;;41.23;38.64;100800.67;108502;1260;124726;-85
2023/07/12 04:55:06;;;;;;;;;;;;;;;41.44;37.65;100800.65;108682;1259;59450;-85
2023/07/12 04:57:33;;;;;;;;;;;;;;;41.51;36.75;100802.08;108587;1265;64139;-84
2023/07/12 05:00:00;;;;;;;;;;;;;;;41.51;36.01;100805.32;108460;1264;124952;-83
2023/07/12 05:02:30;;;;;;;;;;;;;;;41.31;35.36;100811.45;108628;1265;59342;-84
2023/07/12 05:05:00;;;;;;;;;;;;;;;41.18;34.94;100814.73;108514;1265;124793;-85
2023/07/12 05:07:31;;;;;;;;;;;;;;;41.21;34.40;100811.51;108565;1260;59515;-85
2023/07/12 05:09:58;;;;;;;;;;;;;;;41.43;34.09;100810.48;108615;1260;64873;-85
2023/07/12 05:12:25;;;;;;;;;;;;;;;41.61;33.55;100814.02;108362;1265;124607;-85
2023/07/12 05:14:52;;;;;;;;;;;;;;;41.76;33.22;100814.38;108576;1259;59467;-85
2023/07/12 05:17:19;;;;;;;;;;;;;;;41.97;32.71;100812.97;108423;1259;124605;-85
2023/07/12 05:19:46;;;;;;;;;;;;;;;41.99;32.33;100808.23;108548;1259;59595;-85
2023/07/12 05:22:13;;;;;;;;;;;;;;;41.91;32.02;100801.92;108492;1260;125695;-87
2023/07/12 05:24:43;;;;;;;;;;;;;;;41.81;31.73;100801.23;108686;1263;59109;-85
2023/07/12 05:27:10;;;;;;;;;;;;;;;41.91;31.57;100801.53;108609;1265;59301;-85
2023/07/12 05:29:37;;;;;;;;;;;;;;;42.10;31.26;100803.77;108460;1264;125659;-85
2023/07/12 05:32:04;;;;;;;;;;;;;;;42.02;30.73;100800.42;108558;1259;59308;-85
2023/07/12 05:34:31;;;;;;;;;;;;;;;41.52;30.32;100796.30;108365;1261;124569;-85
2023/07/12 05:36:58;;;;;;;;;;;;;;;40.92;30.28;100798.44;108640;1261;59421;-85
2023/07/12 05:39:25;;;;;;;;;;;;;;;40.23;30.24;100800.06;108744;1261;59304;-85
2023/07/12 05:41:52;;;;;;;;;;;;;;;39.79;30.77;100801.67;108554;1261;124399;-84
2023/07/12 05:44:21;;;;;;;;;;;;;;;39.67;30.80;100799.67;108675;1260;59650;-85
2023/07/12 05:46:48;;;;;;;;;;;;;;;38.74;30.50;100794.54;108661;1263;124262;-85
2023/07/12 05:49:15;;;;;;;;;;;;;;;37.12;31.30;100783.33;108650;1264;59386;-85
2023/07/12 05:51:42;;;;;;;;;;;;;;;35.49;32.09;100774.64;108574;1265;59419;-84
2023/07/12 05:54:09;;;;;;;;;;;;;;;34.02;32.94;100771.52;108504;1259;125394;-84
2023/07/12 05:56:36;;;;;;;;;;;;;;;32.67;34.03;100768.77;108782;1275;59485;-85
2023/07/12 05:59:03;;;;;;;;;;;;;;;31.44;35.11;100760.14;108513;1260;124947;-84
2023/07/12 06:01:30;;;;;;;;;;;;;;;30.41;36.16;100757.77;108741;1261;59416;-84
2023/07/12 06:03:57;;;;;;;;;;;;;;;29.51;37.43;100753.34;108665;1264;59462;-86
2023/07/12 06:06:26;;;;;;;;;;;;;;;28.79;38.53;100750.41;108472;1261;127187;-84
2023/07/12 06:08:53;;;;;;;;;;;;;;;28.00;39.45;100741.45;108615;1260;66857;-84
2023/07/12 06:11:20;;;;;;;;;;;;;;;27.35;40.32;100739.55;108619;1260;124352;-84
2023/07/12 06:13:47;;;;;;;;;;;;;;;26.85;41.28;100734.85;108673;1264;59217;-85
2023/07/12 06:16:14;;;;;;;;;;;;;;;26.43;42.12;100735.73;108451;1260;124879;-86
2023/07/12 06:18:41;;;;;;;;;;;;;;;26.00;42.85;100731.30;108601;1261;73923;-86
2023/07/12 06:21:09;;;;;;;;;;;;;;;25.70;43.73;100727.57;108647;1260;66216;-86
2023/07/12 06:23:36;;;;;;;;;;;;;;;25.45;44.29;100728.72;108422;1261;126069;-86
2023/07/12 06:26:04;;;;;;;;;;;;;;;25.21;44.79;100732.62;108574;1266;59199;-86
2023/07/12 06:28:31;;;;;;;;;;;;;;;25.02;45.48;100738.33;108493;1260;127465;-86
2023/07/12 06:31:00;;;;;;;;;;;;;;;24.84;45.86;100737.33;108667;1261;75919;-86
2023/07/12 06:33:27;;;;;;;;;;;;;;;24.73;46.54;100739.14;108654;1260;65362;-86
2023/07/12 06:35:54;;;;;;;;;;;;;;;24.62;46.92;100735.73;108562;1259;124318;-86
2023/07/12 06:38:21;;;;;;;;;;;;;;;24.53;47.38;100738.55;108704;1276;59399;-85
2023/07/12 06:40:48;;;;;;;;;;;;;;;24.53;47.72;100731.02;108542;1261;124808;-85
2023/07/12 06:43:15;;;;;;;;;;;;;;;24.56;47.97;100732.52;108552;1260;75310;-85
2023/07/12 06:45:45;;;;;;;;;;;;;;;24.62;48.17;100731.79;108720;1260;67159;-85
2023/07/12 06:48:12;;;;;;;;;;;;;;;24.71;48.44;100728.42;108572;1258;124887;-86
2023/07/12 06:50:39;;;;;;;;;;;;;;;24.89;48.64;100717.77;108612;1261;59451;-86
2023/07/12 06:53:06;;;;;;;;;;;;;;;25.07;48.64;100714.42;108619;1259;124412;-85
2023/07/12 06:55:34;;;;;;;;;;;;;;;25.20;48.61;100713.98;108619;1261;75451;-85
2023/07/12 06:58:01;;;;;;;;;;;;;;;25.31;48.55;100710.89;108688;1259;67078;-85
2023/07/12 07:00:28;;;;;;;;;;;;;;;25.46;48.52;100706.59;108686;1260;125325;-86
2023/07/12 07:02:55;;;;;;;;;;;;;;;25.57;48.37;100708.34;108658;1264;59484;-85
2023/07/12 07:05:22;;;;;;;;;;;;;;;25.70;48.47;100704.94;108454;1275;125029;-85
2023/07/12 07:07:49;;;;;;;;;;;;;;;25.87;48.65;100704.45;108678;1259;75181;-85
2023/07/12 07:10:17;;;;;;;;;;;;;;;26.06;48.65;100697.61;108622;1260;124385;-86
2023/07/12 07:12:44;;;;;;;;;;;;;;;26.24;48.49;100696.02;108696;1260;71493;-85
2023/07/12 07:15:11;;;;;;;;;;;;;;;26.33;48.05;100698.32;108721;1263;60125;-85
2023/07/12 07:17:38;;;;;;;;;;;;;;;26.41;48.10;100700.70;108648;1260;125737;-86
2023/07/12 07:20:05;;;;;;;;;;;;;;;26.52;47.86;100692.30;108569;1260;74651;-85
2023/07/12 07:22:33;;;;;;;;;;;;;;;26.63;47.77;100680.00;108521;1259;124513;-86
2023/07/12 07:24:59;;;;;;;;;;;;;;;26.72;47.59;100673.33;108585;1261;72639;-86
2023/07/12 07:27:26;;;;;;;;;;;;;;;26.84;47.50;100663.97;108490;1260;59407;-86
2023/07/12 07:29:53;;;;;;;;;;;;;;;26.99;47.33;100658.44;108484;1259;124798;-86
2023/07/12 07:32:20;;;;;;;;;;;;;;;27.11;47.03;100644.39;108641;1261;73434;-86
2023/07/12 07:35:03;;;;;;;;;;;;;;;27.22;46.86;100633.98;108563;1260;125596;-86
2023/07/12 07:37:30;;;;;;;;;;;;;;;27.31;46.23;100622.95;108641;1259;73860;-86
2023/07/12 07:39:57;;;;;;;;;;;;;;;27.38;46.03;100618.70;108577;1263;59623;-86
2023/07/12 07:42:24;;;;;;;;;;;;;;;27.40;45.77;100617.48;108398;1265;125776;-86
2023/07/12 07:44:51;;;;;;;;;;;;;;;27.39;45.34;100612.88;108545;1260;75286;-86
2023/07/12 07:47:18;;;;;;;;;;;;;;;27.43;45.64;100608.02;108554;1277;124656;-86
2023/07/12 07:49:45;;;;;;;;;;;;;;;27.51;45.60;100607.95;108612;1260;71925;-86
2023/07/12 07:52:12;;;;;;;;;;;;;;;27.62;45.49;100609.45;108558;1260;124337;-85
2023/07/12 07:54:39;;;;;;;;;;;;;;;27.66;45.23;100604.00;108544;1260;60157;-86
2023/07/12 07:57:06;;;;;;;;;;;;;;;27.72;45.20;100605.88;108590;1260;74238;-86
2023/07/12 07:59:33;;;;;;;;;;;;;;;27.77;45.22;100613.97;108563;1260;124845;-86
2023/07/12 08:02:00;;;;;;;;;;;;;;;27.84;45.19;100612.35;108375;1260;73602;-86
2023/07/12 08:04:28;;;;;;;;;;;;;;;27.91;44.85;100610.02;108398;1260;124733;-86
2023/07/12 08:06:56;;;;;;;;;;;;;;;27.98;44.72;100615.10;108633;1261;59131;-86
2023/07/12 08:09:23;;;;;;;;;;;;;;;28.06;44.48;100613.07;108574;1264;75306;-86
2023/07/12 08:11:50;;;;;;;;;;;;;;;28.10;44.30;100607.27;108466;1265;124806;-86
2023/07/12 08:14:18;;;;;;;;;;;;;;;28.18;44.28;100602.02;108608;1260;73488;-86
2023/07/12 08:16:48;;;;;;;;;;;;;;;28.26;44.02;100597.48;108484;1259;125300;-85
2023/07/12 08:19:16;;;;;;;;;;;;;;;28.28;43.86;100594.83;108755;1260;59020;-86
2023/07/12 08:21:43;;;;;;;;;;;;;;;28.32;43.86;100586.70;108581;1263;64556;-85
2023/07/12 08:24:10;;;;;;;;;;;;;;;28.37;43.96;100583.70;108495;1259;125030;-86
2023/07/12 08:26:37;;;;;;;;;;;;;;;28.40;43.61;100592.96;108547;1259;73049;-85
2023/07/12 08:29:04;;;;;;;;;;;;;;;28.41;43.54;100598.70;108391;1260;125215;-86
2023/07/12 08:31:32;;;;;;;;;;;;;;;28.44;43.79;100606.45;108538;1261;59432;-87
2023/07/12 08:33:59;;;;;;;;;;;;;;;28.52;43.66;100608.23;108543;1260;66088;-86
2023/07/12 08:36:26;;;;;;;;;;;;;;;28.54;43.16;100601.81;108413;1259;124316;-85
2023/07/12 08:38:52;;;;;;;;;;;;;;;28.57;43.04;100592.66;108570;1259;71423;-85
2023/07/12 08:41:21;;;;;;;;;;;;;;;28.64;43.03;100584.85;108508;1260;125720;-86
2023/07/12 08:43:48;;;;;;;;;;;;;;;28.77;42.67;100571.89;108670;1261;59250;-86
2023/07/12 08:46:17;;;;;;;;;;;;;;;28.85;42.10;100567.32;108489;1260;124785;-86
2023/07/12 08:48:44;;;;;;;;;;;;;;;28.93;41.90;100577.14;108526;1259;59609;-86
2023/07/12 08:51:16;;;;;;;;;;;;;;;29.00;41.65;100579.54;108552;1264;62640;-86
2023/07/12 08:53:43;;;;;;;;;;;;;;;29.06;41.31;100576.08;108550;1275;124760;-86
2023/07/12 08:56:14;;;;;;;;;;;;;;;29.13;41.20;100567.95;108739;1259;61244;-85
2023/07/12 08:58:44;;;;;;;;;;;;;;;29.14;40.87;100551.67;108607;1259;124864;-86
2023/07/12 09:01:12;;;;;;;;;;;;;;;29.10;40.92;100545.55;108530;1260;59913;-85
2023/07/12 09:03:43;;;;;;;;;;;;;;;29.06;40.78;100544.85;108622;1260;63898;-86
2023/07/12 09:06:10;;;;;;;;;;;;;;;28.97;40.58;100539.38;108607;1260;124671;-84
2023/07/12 09:08:39;;;;;;;;;;;;;;;28.85;40.65;100547.23;108527;1260;59626;-85
2023/07/12 09:11:16;;;;;;;;;;;;;;;28.78;40.75;100551.77;108421;1259;124016;-85
2023/07/12 09:13:46;;;;;;;;;;;;;;;28.76;41.01;100545.25;108602;1259;67127;-84
2023/07/12 09:16:32;;;;;;;;;;;;;;;28.81;41.06;100543.67;108496;1260;124392;-84
2023/07/12 09:19:00;;;;;;;;;;;;;;;28.90;40.93;100540.33;108543;1260;59356;-85
2023/07/12 09:21:29;;;;;;;;;;;;;;;28.99;40.66;100536.00;108545;1260;59393;-84
2023/07/12 09:23:58;;;;;;;;;;;;;;;29.07;40.19;100534.50;108588;1259;124137;-84
2023/07/12 09:26:29;;;;;;;;;;;;;;;29.10;40.10;100528.89;108685;1261;67672;-85
2023/07/12 09:29:05;;;;;;;;;;;;;;;29.13;39.81;100517.23;108461;1263;124766;-84
2023/07/12 09:31:34;;;;;;;;;;;;;;;29.09;39.45;100505.86;108579;1259;59244;-84
2023/07/12 09:34:05;;;;;;;;;;;;;;;29.03;39.29;100501.11;108653;1260;59352;-85
2023/07/12 09:36:36;;;;;;;;;;;;;;;28.97;39.28;100495.48;108589;1260;125440;-86
2023/07/12 09:39:03;;;;;;;;;;;;;;;28.92;39.27;100492.38;108717;1260;59329;-85
2023/07/12 09:41:30;;;;;;;;;;;;;;;28.86;39.27;100482.36;108519;1260;124599;-86
2023/07/12 09:43:58;;;;;;;;;;;;;;;28.78;39.51;100482.45;108691;1260;59434;-86
2023/07/12 09:46:39;;;;;;;;;;;;;;;28.68;39.41;100471.96;108586;1261;123113;-85
2023/07/12 09:49:19;;;;;;;;;;;;;;;28.61;39.06;100466.27;108721;1266;74420;-84
2023/07/12 09:51:52;;;;;;;;;;;;;;;28.59;39.15;100464.02;108498;1267;66527;-85
2023/07/12 09:54:30;;;;;;;;;;;;;;;28.65;39.24;100458.98;108513;1259;124617;-86
2023/07/12 09:57:27;;;;;;;;;;;;;;;28.83;39.20;100467.92;108620;1260;60159;-86
2023/07/12 10:00:18;;;;;;;;;;;;;;;29.12;38.90;100456.91;108454;1259;124612;-86
2023/07/12 10:03:11;;;;;;;;;;;;;;;29.43;38.27;100446.84;108596;1260;75471;-86
2023/07/12 10:05:38;;;;;;;;;;;;;;;29.58;38.26;100435.61;108328;1261;124839;-87
2023/07/12 10:08:14;;;;;;;;;;;;;;;29.76;38.20;100433.46;108327;1259;72821;-86
2023/07/12 10:11:00;;;;;;;;;;;;;;;29.98;37.77;100431.98;108453;1260;123155;-86
2023/07/12 10:13:30;;;;;;;;;;;;;;;30.23;37.28;100433.55;108533;1265;61304;-86
2023/07/12 10:15:57;;;;;;;;;;;;;;;30.40;37.07;100431.77;108622;1259;65456;-86
2023/07/12 10:18:27;;;;;;;;;;;;;;;30.59;36.85;100434.58;108464;1259;124671;-86
2023/07/12 10:20:55;;;;;;;;;;;;;;;30.73;36.58;100441.14;108689;1259;64130;-86
2023/07/12 10:23:26;;;;;;;;;;;;;;;30.76;36.34;100445.06;108484;1275;124089;-86
2023/07/12 10:25:58;;;;;;;;;;;;;;;30.77;36.19;100448.05;108695;1261;58969;-86
2023/07/12 10:28:41;;;;;;;;;;;;;;;30.77;35.96;100449.16;108453;1259;128309;-86
2023/07/12 10:31:38;;;;;;;;;;;;;;;30.72;35.64;100455.31;108536;1261;59451;-86
2023/07/12 10:34:12;;;;;;;;;;;;;;;30.65;35.68;100462.10;108427;1265;71152;-86
2023/07/12 10:36:39;;;;;;;;;;;;;;;30.55;35.60;100463.60;108363;1260;123974;-86
2023/07/12 10:39:06;;;;;;;;;;;;;;;30.40;35.62;100460.54;108518;1260;59229;-86
2023/07/12 10:41:38;;;;;;;;;;;;;;;30.22;35.74;100468.01;108498;1259;124406;-86
2023/07/12 10:44:06;;;;;;;;;;;;;;;30.00;35.85;100463.38;108548;1259;59462;-86
2023/07/12 10:46:41;;;;;;;;;;;;;;;29.77;36.06;100464.02;108504;1262;125183;-86
2023/07/12 10:49:14;;;;;;;;;;;;;;;29.46;36.16;100464.21;108353;1259;269648;-85
2023/07/12 10:51:42;;;;;;;;;;;;;;;29.18;36.52;100475.17;108578;1260;60092;-86
2023/07/12 10:54:37;;;;;;;;;;;;;;;28.89;37.26;100476.95;108531;1261;124560;-86
2023/07/12 10:57:19;;;;;;;;;;;;;;;28.54;38.71;100490.80;108715;1259;66359;-86
2023/07/12 10:59:46;;;;;;;;;;;;;;;28.08;40.90;100497.33;108575;1259;125702;-86
2023/07/12 11:02:22;;;;;;;;;;;;;;;27.53;41.72;100492.02;108486;1259;59264;-86
2023/07/12 11:04:49;;;;;;;;;;;;;;;27.04;42.80;100484.98;108382;1259;125232;-86
2023/07/12 11:07:16;;;;;;;;;;;;;;;26.74;43.73;100469.64;108522;1259;74528;-86
2023/07/12 11:09:47;;;;;;;;;;;;;;;26.60;44.29;100469.56;108592;1264;66269;-85
2023/07/12 11:12:18;;;;;;;;;;;;;;;26.58;44.89;100471.08;108431;1260;124625;-86
2023/07/12 11:14:56;;;;;;;;;;;;;;;26.69;45.66;100467.52;108443;1260;59160;-86
2023/07/12 11:17:28;;;;;;;;;;;;;;;26.88;46.69;100472.79;108490;1259;124864;-86
2023/07/12 11:20:03;;;;;;;;;;;;;;;27.02;47.16;100476.42;108564;1259;75570;-86
2023/07/12 11:23:03;;;;;;;;;;;;;;;27.02;47.39;100483.05;108496;1259;125118;-86
2023/07/12 11:25:48;;;;;;;;;;;;;;;26.86;47.70;100484.02;108324;1259;72433;-86
2023/07/12 11:28:21;;;;;;;;;;;;;;;26.70;48.12;100481.53;108655;1259;59424;-86
2023/07/12 11:31:07;;;;;;;;;;;;;;;26.61;48.58;100477.46;108682;1261;60589;-86
2023/07/12 11:33:34;;;;;;;;;;;;;;;26.53;48.97;100477.24;108706;1259;74716;-85
2023/07/12 11:36:16;;;;;;;;;;;;;;;26.56;49.64;100473.13;108499;1259;125324;-84
2023/07/12 11:38:43;;;;;;;;;;;;;;;26.66;49.96;100471.63;108428;1260;73684;-85
2023/07/12 11:41:14;;;;;;;;;;;;;;;26.69;50.25;100473.84;108528;1259;123737;-86
2023/07/12 11:43:41;;;;;;;;;;;;;;;26.65;50.09;100475.09;108627;1259;60102;-86
2023/07/12 11:46:20;;;;;;;;;;;;;;;26.59;50.15;100476.80;108566;1259;73516;-86
2023/07/12 11:48:50;;;;;;;;;;;;;;;26.53;50.01;100466.96;108447;1259;125417;-86
2023/07/12 11:51:27;;;;;;;;;;;;;;;26.53;49.79;100464.98;108513;1259;71216;-86
2023/07/12 11:53:54;;;;;;;;;;;;;;;26.55;49.62;100457.73;108490;1259;125169;-86
2023/07/12 11:56:21;;;;;;;;;;;;;;;26.58;49.48;100455.04;108629;1259;60174;-86
2023/07/12 11:58:48;;;;;;;;;;;;;;;26.60;49.33;100457.33;108504;1260;125401;-85
2023/07/12 12:01:17;;;;;;;;;;;;;;;26.62;49.57;100449.17;108688;1261;65670;-86
2023/07/12 12:03:47;;;;;;;;;;;;;;;26.64;49.13;100442.58;108643;1259;73031;-85
2023/07/12 12:06:14;;;;;;;;;;;;;;;26.62;49.02;100434.41;108548;1259;124556;-85
2023/07/12 12:08:42;;;;;;;;;;;;;;;26.63;48.78;100425.54;108717;1259;60115;-85
2023/07/12 12:11:10;;;;;;;;;;;;;;;26.66;49.03;100414.77;108529;1260;126658;-86
2023/07/12 12:13:42;;;;;;;;;;;;;;;26.62;48.81;100404.16;108524;1259;67570;-85
2023/07/12 12:16:17;;;;;;;;;;;;;;;26.55;48.82;100398.16;108495;1259;73104;-85
2023/07/12 12:18:54;;;;;;;;;;;;;;;26.49;49.00;100406.00;108420;1259;124268;-85
2023/07/12 12:21:22;;;;;;;;;;;;;;;26.53;49.20;100413.54;108579;1259;60048;-85
2023/07/12 12:24:05;;;;;;;;;;;;;;;26.63;49.58;100424.25;108442;1259;124250;-85
2023/07/12 12:26:32;;;;;;;;;;;;;;;26.77;49.98;100426.64;108552;1259;67119;-85
2023/07/12 12:29:00;;;;;;;;;;;;;;;27.00;50.22;100423.95;108416;1259;137714;-85
2023/07/12 12:31:28;;;;;;;;;;;;;;;27.31;49.92;100419.35;108548;1259;59905;-85
2023/07/12 12:34:15;;;;;;;;;;;;;;;27.58;49.32;100417.64;108695;1262;60117;-85